createdAt,value
2023-04-30T00:02:22.441Z,7.30
2023-04-30T00:04:49.538Z,7.56
2023-04-30T00:07:16.289Z,7.56
2023-04-30T00:09:43.323Z,7.16
2023-04-30T00:12:10.212Z,7.08
2023-04-30T00:14:37.683Z,7.40
2023-04-30T00:17:04.832Z,7.07
2023-04-30T00:19:31.465Z,7.06
2023-04-30T00:21:58.503Z,6.33
2023-04-30T00:24:25.256Z,7.43
2023-04-30T00:26:51.997Z,7.39
2023-04-30T00:29:18.770Z,7.23
2023-04-30T00:31:45.902Z,7.38
2023-04-30T00:34:12.732Z,7.48
2023-04-30T00:36:40.572Z,7.21
2023-04-30T00:39:07.692Z,7.15
2023-04-30T00:41:36.158Z,7.14
2023-04-30T00:44:03.318Z,7.38
2023-04-30T00:46:30.936Z,6.78
2023-04-30T00:49:00.193Z,6.28
2023-04-30T00:51:27.454Z,6.47
2023-04-30T00:53:54.322Z,6.66
2023-04-30T00:56:21.616Z,6.40
2023-04-30T00:58:50.345Z,5.98
2023-04-30T01:01:18.638Z,6.21
2023-04-30T01:03:46.022Z,6.66
2023-04-30T01:06:12.896Z,6.43
2023-04-30T01:08:39.701Z,6.05
2023-04-30T01:11:28.276Z,5.64
2023-04-30T01:14:18.744Z,6.23
2023-04-30T01:17:04.494Z,6.06
2023-04-30T01:19:45.871Z,5.42
2023-04-30T01:22:32.278Z,5.75
2023-04-30T01:25:22.042Z,5.73
2023-04-30T01:27:58.821Z,6.32
2023-04-30T01:30:26.062Z,4.82
2023-04-30T01:32:53.048Z,5.99
2023-04-30T01:35:20.777Z,6.42
2023-04-30T01:38:14.737Z,6.43
2023-04-30T01:41:15.203Z,6.77
2023-04-30T01:43:50.679Z,7.43
2023-04-30T01:46:28.223Z,6.77
2023-04-30T01:49:12.152Z,6.24
2023-04-30T01:51:43.081Z,6.13
2023-04-30T01:54:46.595Z,6.62
2023-04-30T01:57:18.407Z,7.13
2023-04-30T01:59:46.714Z,6.93
2023-04-30T02:02:13.458Z,7.06
2023-04-30T02:04:40.166Z,7.69
2023-04-30T02:07:07.273Z,7.46
2023-04-30T02:09:34.523Z,7.10
2023-04-30T02:12:01.267Z,7.72
2023-04-30T02:14:28.493Z,6.58
2023-04-30T02:16:55.182Z,6.67
2023-04-30T02:19:22.420Z,6.35
2023-04-30T02:21:49.540Z,6.85
2023-04-30T02:24:16.293Z,7.12
2023-04-30T02:26:43.433Z,6.02
2023-04-30T02:29:10.124Z,5.33
2023-04-30T02:31:37.376Z,5.17
2023-04-30T02:34:04.435Z,5.56
2023-04-30T02:36:36.295Z,6.39
2023-04-30T02:39:03.102Z,7.00
2023-04-30T02:41:30.618Z,6.45
2023-04-30T02:43:57.382Z,7.45
2023-04-30T02:46:24.328Z,6.31
2023-04-30T02:48:51.402Z,7.27
2023-04-30T02:51:18.513Z,7.17
2023-04-30T02:53:45.391Z,6.08
2023-04-30T02:56:12.365Z,6.65
2023-04-30T02:58:39.162Z,6.11
2023-04-30T03:01:06.499Z,5.94
2023-04-30T03:03:33.881Z,6.57
2023-04-30T03:06:00.951Z,6.75
2023-04-30T03:08:27.926Z,6.09
2023-04-30T03:10:54.690Z,6.46
2023-04-30T03:13:21.574Z,6.15
2023-04-30T03:15:48.669Z,6.00
2023-04-30T03:18:15.392Z,5.45
2023-04-30T03:20:42.691Z,6.10
2023-04-30T03:23:09.520Z,6.10
2023-04-30T03:25:36.590Z,6.06
2023-04-30T03:28:03.440Z,6.45
2023-04-30T03:30:30.685Z,6.52
2023-04-30T03:32:57.722Z,6.61
2023-04-30T03:35:24.533Z,6.06
2023-04-30T03:37:51.430Z,5.66
2023-04-30T03:40:18.659Z,6.16
2023-04-30T03:42:45.521Z,6.73
2023-04-30T03:45:12.278Z,6.13
2023-04-30T03:47:39.317Z,6.97
2023-04-30T03:50:07.415Z,7.12
2023-04-30T03:52:34.224Z,5.56
2023-04-30T03:55:01.010Z,5.94
2023-04-30T03:57:28.131Z,6.14
2023-04-30T03:59:55.599Z,6.43
2023-04-30T04:02:23.418Z,6.28
2023-04-30T04:04:52.097Z,6.29
2023-04-30T04:07:19.309Z,6.31
2023-04-30T04:09:46.216Z,5.80
2023-04-30T04:12:13.225Z,6.72
2023-04-30T04:14:39.957Z,5.98
2023-04-30T04:17:07.224Z,6.14
2023-04-30T04:19:34.413Z,6.42
2023-04-30T04:22:01.278Z,6.28
2023-04-30T04:24:28.253Z,6.24
2023-04-30T04:26:55.605Z,5.86
2023-04-30T04:29:22.374Z,5.52
2023-04-30T04:31:51.173Z,5.66
2023-04-30T04:34:20.063Z,5.86
2023-04-30T04:36:46.808Z,6.05
2023-04-30T04:39:14.658Z,6.03
2023-04-30T04:41:42.095Z,6.97
2023-04-30T04:44:08.972Z,6.82
2023-04-30T04:46:42.330Z,5.98
2023-04-30T04:49:09.258Z,6.62
2023-04-30T04:51:36.225Z,6.67
2023-04-30T04:54:02.927Z,5.68
2023-04-30T04:56:29.912Z,5.83
2023-04-30T04:58:57.059Z,6.18
2023-04-30T05:01:24.074Z,5.64
2023-04-30T05:03:51.319Z,6.10
2023-04-30T05:06:19.711Z,4.91
2023-04-30T05:08:46.476Z,5.40
2023-04-30T05:11:15.420Z,4.87
2023-04-30T05:13:42.501Z,5.80
2023-04-30T05:16:09.279Z,4.79
2023-04-30T05:18:36.286Z,6.02
2023-04-30T05:21:04.402Z,5.71
2023-04-30T05:23:31.427Z,6.15
2023-04-30T05:25:58.174Z,5.51
2023-04-30T05:28:24.882Z,6.68
2023-04-30T05:30:51.936Z,5.90
2023-04-30T05:33:19.124Z,6.54
2023-04-30T05:35:46.216Z,5.69
2023-04-30T05:38:12.977Z,5.71
2023-04-30T05:40:40.830Z,5.56
2023-04-30T05:43:07.958Z,5.01
2023-04-30T05:45:34.738Z,5.70
2023-04-30T05:48:02.206Z,7.43
2023-04-30T05:50:29.240Z,6.48
2023-04-30T05:52:56.012Z,6.75
2023-04-30T05:55:23.176Z,6.72
2023-04-30T05:57:50.141Z,6.54
2023-04-30T06:00:17.349Z,7.81
2023-04-30T06:02:44.382Z,8.17
2023-04-30T06:05:13.370Z,5.27
2023-04-30T06:07:41.404Z,5.19
2023-04-30T06:10:09.420Z,6.22
2023-04-30T06:12:36.536Z,6.63
2023-04-30T06:15:03.812Z,7.59
2023-04-30T06:17:30.912Z,7.12
2023-04-30T06:20:00.833Z,7.42
2023-04-30T06:22:27.554Z,7.13
2023-04-30T06:24:54.632Z,7.19
2023-04-30T06:27:21.715Z,7.19
2023-04-30T06:29:48.420Z,6.36
2023-04-30T06:32:15.132Z,7.26
2023-04-30T06:34:41.864Z,7.12
2023-04-30T06:37:08.661Z,7.01
2023-04-30T06:39:35.578Z,8.81
2023-04-30T06:42:02.466Z,8.66
2023-04-30T06:44:29.223Z,8.01
2023-04-30T06:46:56.400Z,5.75
2023-04-30T06:49:23.112Z,6.52
2023-04-30T06:51:50.200Z,6.79
2023-04-30T06:54:17.208Z,8.08
2023-04-30T06:56:44.843Z,8.15
2023-04-30T06:59:12.290Z,9.62
2023-04-30T07:01:39.091Z,9.08
2023-04-30T07:04:06.066Z,9.84
2023-04-30T07:06:32.921Z,9.31
2023-04-30T07:08:59.969Z,10.03
2023-04-30T07:11:26.811Z,7.88
2023-04-30T07:13:53.967Z,6.46
2023-04-30T07:16:21.142Z,8.22
2023-04-30T07:18:51.123Z,10.05
2023-04-30T07:21:17.890Z,9.77
2023-04-30T07:23:45.636Z,7.92
2023-04-30T07:26:12.688Z,9.17
2023-04-30T07:28:39.431Z,10.17
2023-04-30T07:31:07.268Z,9.73
2023-04-30T07:33:34.149Z,9.86
2023-04-30T07:36:01.278Z,11.31
2023-04-30T07:38:27.975Z,12.39
2023-04-30T07:40:55.206Z,9.45
2023-04-30T07:43:22.307Z,8.92
2023-04-30T07:45:50.098Z,8.47
2023-04-30T07:48:17.446Z,9.57
2023-04-30T07:50:44.143Z,9.60
2023-04-30T07:53:11.042Z,11.30
2023-04-30T07:55:37.763Z,9.97
2023-04-30T07:58:04.501Z,9.50
2023-04-30T08:00:31.638Z,8.85
2023-04-30T08:02:59.246Z,7.83
2023-04-30T08:05:28.362Z,8.24
2023-04-30T08:07:55.444Z,8.26
2023-04-30T08:10:22.469Z,9.79
2023-04-30T08:12:49.303Z,9.63
2023-04-30T08:15:16.770Z,11.26
2023-04-30T08:17:43.470Z,12.31
2023-04-30T08:20:11.296Z,13.11
2023-04-30T08:22:38.146Z,11.76
2023-04-30T08:25:05.365Z,10.53
2023-04-30T08:27:32.851Z,10.44
2023-04-30T08:29:59.596Z,12.54
2023-04-30T08:32:26.463Z,11.92
2023-04-30T08:34:54.416Z,13.01
2023-04-30T08:37:21.786Z,11.62
2023-04-30T08:39:48.490Z,12.65
2023-04-30T08:42:16.045Z,12.07
2023-04-30T08:44:44.067Z,9.72
2023-04-30T08:47:14.659Z,11.42
2023-04-30T08:49:41.674Z,9.07
2023-04-30T08:52:08.790Z,10.23
2023-04-30T08:54:37.128Z,9.93
2023-04-30T08:57:04.775Z,10.15
2023-04-30T08:59:31.648Z,10.18
2023-04-30T09:02:02.375Z,7.78
2023-04-30T09:04:29.439Z,9.53
2023-04-30T09:06:59.196Z,10.65
2023-04-30T09:09:30.742Z,9.58
2023-04-30T09:12:19.970Z,10.42
2023-04-30T09:15:01.504Z,9.72
2023-04-30T09:17:28.557Z,8.71
2023-04-30T09:20:07.515Z,10.24
2023-04-30T09:22:36.163Z,9.35
2023-04-30T09:25:03.512Z,10.50
2023-04-30T09:27:30.322Z,10.50
2023-04-30T09:29:57.182Z,7.84
2023-04-30T09:32:24.320Z,7.95
2023-04-30T09:34:51.311Z,7.62
2023-04-30T09:37:18.032Z,8.40
2023-04-30T09:39:53.983Z,6.30
2023-04-30T09:42:21.260Z,6.74
2023-04-30T09:44:48.260Z,7.69
2023-04-30T09:47:17.866Z,8.69
2023-04-30T09:49:47.904Z,7.22
2023-04-30T09:52:16.204Z,7.49
2023-04-30T09:54:45.261Z,7.67
2023-04-30T09:57:15.558Z,8.86
2023-04-30T09:59:47.282Z,10.04
2023-04-30T10:02:17.159Z,10.48
2023-04-30T10:04:45.005Z,10.80
2023-04-30T10:07:21.827Z,11.91
2023-04-30T10:10:09.502Z,13.55
2023-04-30T10:12:49.159Z,15.55
2023-04-30T10:15:25.771Z,16.20
2023-04-30T10:18:05.664Z,16.31
2023-04-30T10:20:36.568Z,14.95
2023-04-30T10:23:04.026Z,18.00
2023-04-30T10:25:31.857Z,17.69
2023-04-30T10:27:59.143Z,18.22
2023-04-30T10:30:26.901Z,19.00
2023-04-30T10:33:16.864Z,18.78
2023-04-30T10:35:53.567Z,19.45
2023-04-30T10:38:26.052Z,14.46
2023-04-30T10:41:10.985Z,15.87
2023-04-30T10:43:38.171Z,16.71
2023-04-30T10:46:05.074Z,16.82
2023-04-30T10:48:35.488Z,12.46
2023-04-30T10:51:02.162Z,15.12
2023-04-30T10:53:32.373Z,16.02
2023-04-30T10:56:09.333Z,15.83
2023-04-30T10:58:38.727Z,12.77
2023-04-30T11:01:15.822Z,10.14
2023-04-30T11:04:03.728Z,12.92
2023-04-30T11:06:55.087Z,13.50
2023-04-30T11:09:48.542Z,16.71
2023-04-30T11:12:20.825Z,10.81
2023-04-30T11:14:50.118Z,13.90
2023-04-30T11:17:24.803Z,13.56
2023-04-30T11:19:53.714Z,11.11
2023-04-30T11:22:24.743Z,8.42
2023-04-30T11:24:51.435Z,11.19
2023-04-30T11:27:23.670Z,14.97
2023-04-30T11:29:54.854Z,11.66
2023-04-30T11:32:23.556Z,10.93
2023-04-30T11:34:50.651Z,16.49
2023-04-30T11:37:39.847Z,12.01
2023-04-30T11:40:11.045Z,9.81
2023-04-30T11:42:39.951Z,11.07
2023-04-30T11:45:17.922Z,11.55
2023-04-30T11:47:54.033Z,11.00
2023-04-30T11:50:29.229Z,11.96
2023-04-30T11:55:26.172Z,12.19
2023-04-30T11:58:00.000Z,13.53
2023-04-30T12:00:29.254Z,11.92
2023-04-30T12:02:57.012Z,12.52
2023-04-30T12:05:26.967Z,11.37
2023-04-30T12:08:07.528Z,11.04
2023-04-30T12:10:34.902Z,10.89
2023-04-30T12:13:02.552Z,12.05
2023-04-30T12:15:29.570Z,12.52
2023-04-30T12:17:58.141Z,11.42
2023-04-30T12:20:28.444Z,11.59
2023-04-30T12:22:56.032Z,10.95
2023-04-30T12:25:23.334Z,11.67
2023-04-30T12:27:52.755Z,14.06
2023-04-30T12:30:29.306Z,12.17
2023-04-30T12:33:00.933Z,12.41
2023-04-30T12:35:31.455Z,12.79
2023-04-30T12:38:07.044Z,10.83
2023-04-30T12:40:34.329Z,12.51
2023-04-30T12:43:09.282Z,11.29
2023-04-30T12:45:52.900Z,14.62
2023-04-30T12:48:24.524Z,15.38
2023-04-30T12:51:02.408Z,13.95
2023-04-30T12:53:29.706Z,14.26
2023-04-30T12:56:16.955Z,13.58
2023-04-30T12:58:49.659Z,11.80
2023-04-30T13:01:23.073Z,13.80
2023-04-30T13:03:50.819Z,14.14
2023-04-30T13:06:18.004Z,13.94
2023-04-30T13:08:57.821Z,15.17
2023-04-30T13:11:26.997Z,14.43
2023-04-30T13:13:55.937Z,14.14
2023-04-30T13:16:25.211Z,15.56
2023-04-30T13:18:52.675Z,13.85
2023-04-30T13:21:20.744Z,12.56
2023-04-30T13:23:52.911Z,11.01
2023-04-30T13:26:21.858Z,11.91
2023-04-30T13:28:48.692Z,11.27
2023-04-30T13:31:15.841Z,12.69
2023-04-30T13:33:42.788Z,12.14
2023-04-30T13:36:09.812Z,12.11
2023-04-30T13:38:36.571Z,12.33
2023-04-30T13:41:03.270Z,12.51
2023-04-30T13:43:30.300Z,12.06
2023-04-30T13:45:58.757Z,9.31
2023-04-30T13:48:25.876Z,11.89
2023-04-30T13:50:52.758Z,10.63
2023-04-30T13:53:20.058Z,10.44
2023-04-30T13:55:46.771Z,11.95
2023-04-30T13:58:14.080Z,11.64
2023-04-30T14:00:41.186Z,12.69
2023-04-30T14:03:08.427Z,13.66
2023-04-30T14:05:36.600Z,12.32
2023-04-30T14:08:05.420Z,13.81
2023-04-30T14:10:32.936Z,11.71
2023-04-30T14:12:59.665Z,11.45
2023-04-30T14:15:28.079Z,14.63
2023-04-30T14:17:55.349Z,14.13
2023-04-30T14:20:22.158Z,11.47
2023-04-30T14:22:49.109Z,11.16
2023-04-30T14:25:16.482Z,14.00
2023-04-30T14:27:43.264Z,13.26
2023-04-30T14:30:10.683Z,11.94
2023-04-30T14:32:37.840Z,11.65
2023-04-30T14:35:05.545Z,12.66
2023-04-30T14:37:32.240Z,12.57
2023-04-30T14:40:01.861Z,12.12
2023-04-30T14:42:28.656Z,10.54
2023-04-30T14:44:55.605Z,11.04
2023-04-30T14:47:22.743Z,11.96
2023-04-30T14:49:52.130Z,10.82
2023-04-30T14:52:19.928Z,11.01
2023-04-30T14:54:46.703Z,10.48
2023-04-30T14:57:15.108Z,11.28
2023-04-30T14:59:42.060Z,11.70
2023-04-30T15:02:09.390Z,12.01
2023-04-30T15:04:36.206Z,11.46
2023-04-30T15:07:02.972Z,12.77
2023-04-30T15:09:30.124Z,11.60
2023-04-30T15:11:57.809Z,11.62
2023-04-30T15:14:24.540Z,11.02
2023-04-30T15:16:51.766Z,9.65
2023-04-30T15:19:18.501Z,10.87
2023-04-30T15:21:46.985Z,9.99
2023-04-30T15:24:16.129Z,10.15
2023-04-30T15:26:42.807Z,11.28
2023-04-30T15:29:10.809Z,11.98
2023-04-30T15:31:37.847Z,13.09
2023-04-30T15:34:04.891Z,12.76
2023-04-30T15:36:32.422Z,11.54
2023-04-30T15:38:59.898Z,12.88
2023-04-30T15:41:26.790Z,12.80
2023-04-30T15:43:53.606Z,12.42
2023-04-30T15:46:20.470Z,11.92
2023-04-30T15:48:47.554Z,11.39
2023-04-30T15:51:14.395Z,10.90
2023-04-30T15:53:41.181Z,11.41
2023-04-30T15:56:08.981Z,10.91
2023-04-30T15:58:36.154Z,11.49
2023-04-30T16:01:03.097Z,10.79
2023-04-30T16:03:31.199Z,10.40
2023-04-30T16:05:59.390Z,11.08
2023-04-30T16:08:26.816Z,10.53
2023-04-30T16:10:54.352Z,9.53
2023-04-30T16:13:21.511Z,9.97
2023-04-30T16:15:52.363Z,10.63
2023-04-30T16:18:19.087Z,10.82
2023-04-30T16:20:48.734Z,11.03
2023-04-30T16:23:16.753Z,10.43
2023-04-30T16:25:43.577Z,10.17
2023-04-30T16:28:10.343Z,10.00
2023-04-30T16:30:37.549Z,10.75
2023-04-30T16:33:04.340Z,9.10
2023-04-30T16:35:31.325Z,8.96
2023-04-30T16:37:58.134Z,9.51
2023-04-30T16:40:24.936Z,9.68
2023-04-30T16:42:52.245Z,8.23
2023-04-30T16:45:18.993Z,8.61
2023-04-30T16:47:45.976Z,9.28
2023-04-30T16:50:13.193Z,9.58
2023-04-30T16:52:39.915Z,9.45
2023-04-30T16:55:07.186Z,9.51
2023-04-30T16:57:33.972Z,8.04
2023-04-30T17:00:00.898Z,9.86
2023-04-30T17:02:28.098Z,9.24
2023-04-30T17:04:54.844Z,9.57
2023-04-30T17:07:22.007Z,8.82
2023-04-30T17:09:48.855Z,9.79
2023-04-30T17:12:15.946Z,9.56
2023-04-30T17:14:42.885Z,9.09
2023-04-30T17:17:09.706Z,8.21
2023-04-30T17:19:36.481Z,8.09
2023-04-30T17:22:03.559Z,9.10
2023-04-30T17:24:30.402Z,8.74
2023-04-30T17:26:59.340Z,9.47
2023-04-30T17:29:26.401Z,8.62
2023-04-30T17:31:53.477Z,8.54
2023-04-30T17:34:20.960Z,8.89
2023-04-30T17:36:48.963Z,8.10
2023-04-30T17:39:17.011Z,8.99
2023-04-30T17:41:43.754Z,9.05
2023-04-30T17:44:11.781Z,8.45
2023-04-30T17:46:39.625Z,9.07
2023-04-30T17:49:07.444Z,9.49
2023-04-30T17:51:34.210Z,9.31
2023-04-30T17:54:01.302Z,9.97
2023-04-30T17:56:33.207Z,8.53
2023-04-30T17:59:01.039Z,9.01
2023-04-30T18:01:27.933Z,8.98
2023-04-30T18:03:55.344Z,9.94
2023-04-30T18:06:22.669Z,8.20
2023-04-30T18:08:49.489Z,7.28
2023-04-30T18:11:16.642Z,7.99
2023-04-30T18:13:43.768Z,7.64
2023-04-30T18:16:10.793Z,8.00
2023-04-30T18:18:37.866Z,8.66
2023-04-30T18:21:04.711Z,8.27
2023-04-30T18:23:31.893Z,7.79
2023-04-30T18:25:59.011Z,7.16
2023-04-30T18:28:25.806Z,8.50
2023-04-30T18:30:52.897Z,8.03
2023-04-30T18:33:19.670Z,8.34
2023-04-30T18:35:51.557Z,7.26
2023-04-30T18:38:18.799Z,8.28
2023-04-30T18:40:45.784Z,7.82
2023-04-30T18:43:14.607Z,7.10
2023-04-30T18:45:41.432Z,8.13
2023-04-30T18:48:08.518Z,8.48
2023-04-30T18:50:35.326Z,7.85
2023-04-30T18:53:02.286Z,8.03
2023-04-30T18:55:29.254Z,8.16
2023-04-30T18:57:56.488Z,7.38
2023-04-30T19:00:23.280Z,8.07
2023-04-30T19:02:50.054Z,7.25
2023-04-30T19:05:17.455Z,7.75
2023-04-30T19:07:44.749Z,6.44
2023-04-30T19:10:11.523Z,7.35
2023-04-30T19:12:38.618Z,6.14
2023-04-30T19:15:08.531Z,6.55
2023-04-30T19:17:35.437Z,7.63
2023-04-30T19:20:02.429Z,7.32
2023-04-30T19:22:29.311Z,7.23
2023-04-30T19:24:56.104Z,7.37
2023-04-30T19:27:23.316Z,7.04
2023-04-30T19:29:53.944Z,7.24
2023-04-30T19:32:21.202Z,6.91
2023-04-30T19:34:48.081Z,7.37
2023-04-30T19:37:15.073Z,6.72
2023-04-30T19:39:41.903Z,6.91
2023-04-30T19:42:08.800Z,6.95
2023-04-30T19:44:36.039Z,6.34
2023-04-30T19:47:03.545Z,6.78
2023-04-30T19:49:30.496Z,7.07
2023-04-30T19:51:58.351Z,6.46
2023-04-30T19:54:25.072Z,7.08
2023-04-30T19:56:52.911Z,5.92
2023-04-30T19:59:20.210Z,7.27
2023-04-30T20:01:47.893Z,6.45
2023-04-30T20:04:14.925Z,7.01
2023-04-30T20:06:41.950Z,5.49
2023-04-30T20:09:08.988Z,6.94
2023-04-30T20:11:35.764Z,4.99
2023-04-30T20:14:02.706Z,5.48
2023-04-30T20:16:29.859Z,4.86
2023-04-30T20:18:56.896Z,5.15
2023-04-30T20:21:25.033Z,5.45
2023-04-30T20:23:51.748Z,6.38
2023-04-30T20:26:18.711Z,5.57
2023-04-30T20:28:45.539Z,5.95
2023-04-30T20:31:12.734Z,5.69
2023-04-30T20:33:41.283Z,5.68
2023-04-30T20:36:08.185Z,5.65
2023-04-30T20:38:34.972Z,5.91
2023-04-30T20:41:02.148Z,5.61
2023-04-30T20:43:28.992Z,6.31
2023-04-30T20:45:59.052Z,5.30
2023-04-30T20:48:26.689Z,6.28
2023-04-30T20:50:54.009Z,6.01
2023-04-30T20:53:21.196Z,5.59
2023-04-30T20:55:49.065Z,6.26
2023-04-30T20:58:16.120Z,6.09
2023-04-30T21:00:43.047Z,5.16
2023-04-30T21:03:11.009Z,5.91
2023-04-30T21:05:38.469Z,6.23
2023-04-30T21:08:05.564Z,5.77
2023-04-30T21:10:36.367Z,5.18
2023-04-30T21:13:09.416Z,5.07
2023-04-30T21:15:36.584Z,6.06
2023-04-30T21:18:03.941Z,5.69
2023-04-30T21:20:31.628Z,5.57
2023-04-30T21:22:59.002Z,5.67
2023-04-30T21:25:25.979Z,6.07
2023-04-30T21:27:52.680Z,5.86
2023-04-30T21:30:22.330Z,5.13
2023-04-30T21:32:57.746Z,5.78
2023-04-30T21:35:25.231Z,6.00
2023-04-30T21:37:52.011Z,5.77
2023-04-30T21:40:19.124Z,5.66
2023-04-30T21:42:45.906Z,5.86
2023-04-30T21:45:13.265Z,6.23
2023-04-30T21:47:40.748Z,5.47
2023-04-30T21:50:08.581Z,5.30
2023-04-30T21:52:35.272Z,5.47
2023-04-30T21:55:02.072Z,5.17
2023-04-30T21:57:29.134Z,5.66
2023-04-30T21:59:59.004Z,5.44
2023-04-30T22:02:26.633Z,4.49
2023-04-30T22:04:55.439Z,5.15
2023-04-30T22:07:22.798Z,5.72
2023-04-30T22:09:51.629Z,5.00
2023-04-30T22:12:21.363Z,5.36
2023-04-30T22:14:50.198Z,4.35
2023-04-30T22:17:18.262Z,4.01
2023-04-30T22:19:45.005Z,5.19
2023-04-30T22:22:11.992Z,4.74
2023-04-30T22:24:38.811Z,4.49
2023-04-30T22:27:05.645Z,4.48
2023-04-30T22:29:32.378Z,5.00
2023-04-30T22:32:00.530Z,5.56
2023-04-30T22:34:27.590Z,5.80
2023-04-30T22:36:54.309Z,4.83
2023-04-30T22:39:21.181Z,5.16
2023-04-30T22:41:48.122Z,4.71
2023-04-30T22:44:16.589Z,4.65
2023-04-30T22:46:43.798Z,5.51
2023-04-30T22:49:19.933Z,4.65
2023-04-30T22:51:54.447Z,4.68
2023-04-30T22:54:24.200Z,4.87
2023-04-30T22:56:50.938Z,3.52
2023-04-30T22:59:17.693Z,2.79
2023-04-30T23:01:45.449Z,3.48
2023-04-30T23:04:13.353Z,3.60
2023-04-30T23:06:41.609Z,3.13
2023-04-30T23:09:09.124Z,4.33
2023-04-30T23:11:35.918Z,4.65
2023-04-30T23:14:03.592Z,4.57
2023-04-30T23:16:30.540Z,3.57
2023-04-30T23:18:58.313Z,4.38
2023-04-30T23:21:25.504Z,4.74
2023-04-30T23:23:52.360Z,4.27
2023-04-30T23:26:19.176Z,2.37
2023-04-30T23:28:45.896Z,2.39
2023-04-30T23:31:12.718Z,2.62
2023-04-30T23:33:39.520Z,2.38
2023-04-30T23:36:06.668Z,1.97
2023-04-30T23:38:33.656Z,1.85
2023-04-30T23:41:00.700Z,2.31
2023-04-30T23:43:29.718Z,2.91
2023-04-30T23:46:00.296Z,3.16
2023-04-30T23:48:27.314Z,2.40
2023-04-30T23:51:05.038Z,3.32
2023-04-30T23:53:32.195Z,2.38
2023-04-30T23:55:59.634Z,3.01
2023-04-30T23:58:29.983Z,3.25
